Time;durP1;ratioP1;P1;durP2;ratioP2;P2;SDS_P1;SDS_P2;PMS_P1;PMS_P2;Temp;Humidity;BMP_temperature;BMP_pressure;BME280_temperature;BME280_humidity;BME280_pressure;Samples;Min_cycle;Max_cycle;Signal;HPM_P1;HPM_P2
2023/08/27 00:00:50;;;;;;;2.37;2.17;;;16.90;99.90;;;;;;5115125;28;20449;-88
2023/08/27 00:03:17;;;;;;;7.03;3.10;;;17.00;99.90;;;;;;5115722;28;20471;-89
2023/08/27 00:05:44;;;;;;;8.50;3.33;;;16.90;99.90;;;;;;5115395;28;20459;-88
2023/08/27 00:08:11;;;;;;;6.60;2.90;;;16.90;99.90;;;;;;5115870;28;20442;-88
2023/08/27 00:10:40;;;;;;;5.43;3.37;;;16.90;99.90;;;;;;5114697;28;20443;-88
2023/08/27 00:13:06;;;;;;;3.97;2.90;;;16.90;99.90;;;;;;5115611;28;20451;-88
2023/08/27 00:15:33;;;;;;;5.50;3.10;;;16.90;99.90;;;;;;5115043;28;20463;-88
2023/08/27 00:18:00;;;;;;;3.00;2.80;;;16.80;99.90;;;;;;5115326;28;21013;-89
2023/08/27 00:20:27;;;;;;;5.80;3.00;;;16.80;99.90;;;;;;5115229;28;20446;-89
2023/08/27 00:22:54;;;;;;;3.20;2.43;;;16.80;99.90;;;;;;5115166;28;20448;-89
2023/08/27 00:25:21;;;;;;;3.33;3.00;;;16.90;99.90;;;;;;5115105;28;20495;-89
2023/08/27 00:27:49;;;;;;;6.20;2.97;;;16.80;99.90;;;;;;5115208;28;20439;-88
2023/08/27 00:30:16;;;;;;;5.83;3.47;;;16.80;99.90;;;;;;5115102;28;20451;-89
2023/08/27 00:32:42;;;;;;;5.20;2.87;;;16.70;99.90;;;;;;5115126;28;20504;-88
2023/08/27 00:35:09;;;;;;;4.70;2.27;;;16.90;99.90;;;;;;5115078;28;20459;-88
2023/08/27 00:37:36;;;;;;;5.93;2.97;;;16.90;99.90;;;;;;5115181;28;20591;-89
2023/08/27 00:40:04;;;;;;;5.60;3.07;;;16.90;99.90;;;;;;5114904;28;20435;-88
2023/08/27 00:42:31;;;;;;;7.73;2.87;;;16.90;99.90;;;;;;5114928;28;20439;-88
2023/08/27 00:44:59;;;;;;;4.67;3.60;;;16.90;99.90;;;;;;5114858;28;20504;-89
2023/08/27 00:47:26;;;;;;;4.93;3.40;;;16.90;99.90;;;;;;5114885;28;20439;-88
2023/08/27 00:49:53;;;;;;;4.13;2.90;;;16.90;99.90;;;;;;5114835;28;20545;-89
2023/08/27 00:52:21;;;;;;;4.27;2.87;;;17.00;99.90;;;;;;5114659;28;20446;-88
2023/08/27 00:54:50;;;;;;;6.30;3.33;;;16.90;99.90;;;;;;5114388;28;21038;-89
2023/08/27 00:57:18;;;;;;;4.90;2.93;;;16.80;99.90;;;;;;5114883;28;20587;-88
2023/08/27 00:59:45;;;;;;;5.27;2.90;;;16.80;99.90;;;;;;5114756;28;20451;-89
2023/08/27 01:02:15;;;;;;;5.87;3.30;;;16.80;99.90;;;;;;5114417;28;20986;-88
2023/08/27 01:04:41;;;;;;;3.40;2.40;;;16.80;99.90;;;;;;5114427;28;20525;-89
2023/08/27 01:07:17;;;;;;;4.17;3.47;;;16.90;99.90;;;;;;5114442;28;20954;-88
2023/08/27 01:09:49;;;;;;;2.50;2.30;;;16.90;99.90;;;;;;5114811;28;20432;-89
2023/08/27 01:12:24;;;;;;;8.20;2.90;;;16.90;99.90;;;;;;5114858;28;20423;-89
2023/08/27 01:14:53;;;;;;;4.30;2.83;;;16.90;99.90;;;;;;5114725;28;20465;-89
2023/08/27 01:17:23;;;;;;;3.67;3.30;;;16.90;99.90;;;;;;5114700;28;20478;-88
2023/08/27 01:19:50;;;;;;;4.13;2.77;;;16.90;99.90;;;;;;5114585;28;20427;-88
2023/08/27 01:22:18;;;;;;;4.17;2.73;;;16.90;99.90;;;;;;5114541;28;20928;-89
2023/08/27 01:24:45;;;;;;;4.83;3.10;;;16.90;99.90;;;;;;5118727;28;20446;-89
2023/08/27 01:27:16;;;;;;;4.40;2.80;;;16.90;99.90;;;;;;5118637;28;20443;-88
2023/08/27 01:29:49;;;;;;;3.20;2.37;;;16.90;99.90;;;;;;5118591;28;20434;-89
2023/08/27 01:32:23;;;;;;;5.63;2.33;;;16.90;99.90;;;;;;5118520;28;20441;-89
2023/08/27 01:34:52;;;;;;;4.20;2.30;;;16.90;99.90;;;;;;5118487;28;20467;-89
2023/08/27 01:37:21;;;;;;;3.83;2.90;;;17.00;99.90;;;;;;5118451;28;20478;-89
2023/08/27 01:39:47;;;;;;;6.43;2.47;;;17.00;99.90;;;;;;5118464;28;20936;-89
2023/08/27 01:42:14;;;;;;;6.00;3.00;;;16.90;99.90;;;;;;5118367;28;20455;-88
2023/08/27 01:44:41;;;;;;;6.80;2.93;;;17.00;99.90;;;;;;5118325;28;20447;-88
2023/08/27 01:47:08;;;;;;;8.53;2.90;;;17.00;99.90;;;;;;5118301;28;20435;-89
2023/08/27 01:49:35;;;;;;;4.40;2.70;;;17.00;99.90;;;;;;5118289;28;20443;-89
2023/08/27 01:52:02;;;;;;;2.40;2.20;;;16.90;99.90;;;;;;5118141;28;20443;-89
2023/08/27 01:54:33;;;;;;;3.10;2.80;;;16.90;99.90;;;;;;5118052;28;20450;-88
2023/08/27 01:57:00;;;;;;;4.67;2.60;;;16.90;99.90;;;;;;5118033;28;20970;-89
2023/08/27 01:59:26;;;;;;;4.83;2.60;;;17.00;99.90;;;;;;5118075;28;20442;-89
2023/08/27 02:01:53;;;;;;;3.30;2.40;;;17.00;99.90;;;;;;5117785;28;20442;-89
2023/08/27 02:04:20;;;;;;;8.27;2.90;;;17.00;99.90;;;;;;5117605;28;21114;-89
2023/08/27 02:06:47;;;;;;;3.10;2.80;;;17.00;99.90;;;;;;5117820;28;20465;-88
2023/08/27 02:09:15;;;;;;;4.20;2.93;;;17.00;99.90;;;;;;5117896;28;20442;-88
2023/08/27 02:11:44;;;;;;;4.10;2.47;;;17.00;99.90;;;;;;5117422;28;20496;-88
2023/08/27 02:14:11;;;;;;;3.63;2.27;;;17.00;99.90;;;;;;5117854;28;20435;-88
2023/08/27 02:16:39;;;;;;;3.43;2.77;;;17.00;99.90;;;;;;5117051;28;20997;-89
2023/08/27 02:19:06;;;;;;;5.93;2.40;;;17.00;99.90;;;;;;5117534;28;20619;-88
2023/08/27 02:21:32;;;;;;;4.10;2.53;;;17.00;99.90;;;;;;5117647;28;20837;-89
2023/08/27 02:23:59;;;;;;;2.80;2.10;;;17.00;99.90;;;;;;5117497;27;20443;-89
2023/08/27 02:26:26;;;;;;;4.50;3.37;;;17.00;99.90;;;;;;5116923;28;20467;-89
2023/08/27 02:28:54;;;;;;;3.43;2.57;;;17.00;99.90;;;;;;5117412;28;20808;-88
2023/08/27 02:31:21;;;;;;;6.57;2.77;;;17.10;99.90;;;;;;5117435;27;20447;-89
2023/08/27 02:33:47;;;;;;;2.20;2.00;;;17.00;99.90;;;;;;5117239;28;20450;-89
2023/08/27 02:36:15;;;;;;;2.57;1.97;;;17.00;99.90;;;;;;5117373;28;20810;-88
2023/08/27 02:38:42;;;;;;;3.00;2.20;;;17.00;99.90;;;;;;5117106;28;20478;-88
2023/08/27 02:41:09;;;;;;;4.33;2.50;;;17.00;99.90;;;;;;5117092;27;20443;-88
2023/08/27 02:43:36;;;;;;;5.27;3.50;;;16.90;99.90;;;;;;5117102;28;20439;-87
2023/08/27 02:46:04;;;;;;;11.17;3.80;;;16.90;99.90;;;;;;5117067;28;20470;-88
2023/08/27 02:48:31;;;;;;;6.27;3.13;;;16.90;99.90;;;;;;5116922;28;20454;-88
2023/08/27 02:50:58;;;;;;;4.07;2.93;;;16.80;99.90;;;;;;5117148;28;20440;-88
2023/08/27 02:53:24;;;;;;;7.40;3.03;;;16.80;99.90;;;;;;5116613;28;20435;-88
2023/08/27 02:55:51;;;;;;;4.37;2.93;;;16.90;99.90;;;;;;5116874;28;20462;-88
2023/08/27 02:58:18;;;;;;;5.97;3.60;;;16.90;99.90;;;;;;5116549;28;20474;-89
2023/08/27 03:00:45;;;;;;;2.63;2.40;;;16.80;99.90;;;;;;5117237;28;20811;-89
2023/08/27 03:03:13;;;;;;;4.23;2.73;;;16.80;99.90;;;;;;5116448;28;20483;-89
2023/08/27 03:05:40;;;;;;;3.00;2.70;;;16.70;99.90;;;;;;5116364;28;20463;-88
2023/08/27 03:08:07;;;;;;;3.47;2.87;;;16.70;99.90;;;;;;5116529;27;20439;-87
2023/08/27 03:10:34;;;;;;;3.70;2.83;;;16.60;99.90;;;;;;5116332;28;20962;-87
2023/08/27 03:13:00;;;;;;;8.80;2.87;;;16.80;99.90;;;;;;5116296;28;20954;-87
2023/08/27 03:15:27;;;;;;;5.37;3.20;;;16.50;99.90;;;;;;5116218;28;20467;-87
2023/08/27 03:17:54;;;;;;;3.10;2.80;;;16.40;99.90;;;;;;5116250;28;20474;-87
2023/08/27 03:20:22;;;;;;;5.37;2.90;;;16.40;99.90;;;;;;5116176;28;20439;-87
2023/08/27 03:22:49;;;;;;;5.70;3.00;;;16.40;99.90;;;;;;5116189;28;20447;-88
2023/08/27 03:25:16;;;;;;;3.67;2.90;;;16.30;99.90;;;;;;5116075;28;20980;-87
2023/08/27 03:27:41;;;;;;;5.37;2.77;;;16.30;99.90;;;;;;5116047;27;20438;-87
2023/08/27 03:30:09;;;;;;;6.73;3.63;;;16.30;99.90;;;;;;5115767;28;20435;-86
2023/08/27 03:32:36;;;;;;;3.80;3.50;;;16.30;99.90;;;;;;5115876;28;20731;-87
2023/08/27 03:35:03;;;;;;;6.07;3.50;;;16.30;99.90;;;;;;5115809;28;20489;-87
2023/08/27 03:37:31;;;;;;;4.40;2.90;;;16.30;99.90;;;;;;5115597;28;20475;-87
2023/08/27 03:40:00;;;;;;;3.67;2.13;;;16.20;99.90;;;;;;5115104;28;21054;-86
2023/08/27 03:42:27;;;;;;;4.57;2.40;;;16.30;99.90;;;;;;5115473;28;20806;-86
2023/08/27 03:44:54;;;;;;;4.13;2.53;;;16.20;99.90;;;;;;5115094;28;20463;-86
2023/08/27 03:47:21;;;;;;;2.07;1.97;;;16.30;99.90;;;;;;5114986;28;20943;-86
2023/08/27 03:49:47;;;;;;;2.00;1.80;;;16.30;99.90;;;;;;5115377;28;20445;-85
2023/08/27 03:52:14;;;;;;;2.23;1.90;;;16.20;99.90;;;;;;5115138;28;20441;-85
2023/08/27 03:54:42;;;;;;;3.30;2.43;;;16.50;99.90;;;;;;5114936;27;20451;-85
2023/08/27 03:57:09;;;;;;;4.50;2.20;;;16.20;99.90;;;;;;5114505;28;20959;-85
2023/08/27 03:59:36;;;;;;;2.97;1.90;;;16.20;99.90;;;;;;5114956;28;20451;-86
2023/08/27 04:02:03;;;;;;;3.37;2.73;;;16.20;99.90;;;;;;5114518;28;20447;-86
2023/08/27 04:04:32;;;;;;;2.20;2.00;;;16.10;99.90;;;;;;5114567;28;20566;-86
2023/08/27 04:06:59;;;;;;;3.53;2.20;;;16.00;99.90;;;;;;5114968;28;20455;-86
2023/08/27 04:09:25;;;;;;;5.17;2.40;;;16.00;99.90;;;;;;5114748;28;20446;-86
2023/08/27 04:11:53;;;;;;;3.30;1.97;;;16.00;99.90;;;;;;5114856;28;20449;-86
2023/08/27 04:14:20;;;;;;;2.37;1.87;;;16.00;99.90;;;;;;5114672;28;20443;-86
2023/08/27 04:16:47;;;;;;;3.13;2.30;;;16.10;99.90;;;;;;5114683;28;20470;-86
2023/08/27 04:19:14;;;;;;;2.60;1.73;;;16.10;99.90;;;;;;5114566;28;20474;-86
2023/08/27 04:21:41;;;;;;;4.50;1.97;;;16.10;99.90;;;;;;5114631;28;20500;-86
2023/08/27 04:24:09;;;;;;;2.97;1.53;;;16.10;99.90;;;;;;5114407;28;20439;-86
2023/08/27 04:26:37;;;;;;;3.00;2.03;;;16.10;99.90;;;;;;5114550;28;20469;-86
2023/08/27 04:29:05;;;;;;;3.33;2.43;;;16.00;99.90;;;;;;5114728;28;20439;-86
2023/08/27 04:31:32;;;;;;;2.20;1.93;;;16.00;99.90;;;;;;5114649;28;20812;-86
2023/08/27 04:33:59;;;;;;;5.80;2.00;;;16.00;99.90;;;;;;5114545;28;20812;-86
2023/08/27 04:36:25;;;;;;;4.13;2.40;;;16.00;99.90;;;;;;5114012;28;20979;-86
2023/08/27 04:38:52;;;;;;;1.60;1.50;;;16.10;99.90;;;;;;5114293;28;20475;-86
2023/08/27 04:41:19;;;;;;;2.57;1.83;;;16.10;99.90;;;;;;5114406;28;20439;-86
2023/08/27 04:43:46;;;;;;;2.90;2.40;;;16.10;99.90;;;;;;5114069;28;20446;-85
2023/08/27 04:46:14;;;;;;;2.57;1.50;;;16.10;99.90;;;;;;5114497;28;20462;-85
2023/08/27 04:48:40;;;;;;;3.67;1.80;;;16.10;99.90;;;;;;5114420;27;20438;-86
2023/08/27 04:51:07;;;;;;;1.43;1.23;;;16.20;99.90;;;;;;5114834;28;20473;-85
2023/08/27 04:53:34;;;;;;;3.83;2.03;;;16.10;99.90;;;;;;5114032;28;20530;-85
2023/08/27 04:56:01;;;;;;;1.73;1.60;;;16.10;99.90;;;;;;5113988;28;20577;-85
2023/08/27 04:58:28;;;;;;;2.47;1.30;;;16.20;99.90;;;;;;5113699;28;20487;-85
2023/08/27 05:00:55;;;;;;;2.10;1.50;;;16.20;99.90;;;;;;5113548;28;20962;-85
2023/08/27 05:03:23;;;;;;;2.70;1.50;;;16.10;99.90;;;;;;5113668;28;20482;-85
2023/08/27 05:05:53;;;;;;;2.10;1.20;;;16.10;99.90;;;;;;5113871;28;20516;-85
2023/08/27 05:08:20;;;;;;;4.30;2.00;;;16.10;99.90;;;;;;5113967;28;20439;-85
2023/08/27 05:10:47;;;;;;;1.33;1.27;;;16.10;99.90;;;;;;5113926;28;20439;-84
2023/08/27 05:13:13;;;;;;;5.70;2.00;;;16.00;99.90;;;;;;5117944;28;20439;-85
2023/08/27 05:15:40;;;;;;;3.27;1.80;;;16.10;99.90;;;;;;5118480;28;20459;-85
2023/08/27 05:18:09;;;;;;;2.97;2.30;;;16.10;99.90;;;;;;5115426;28;20475;-85
2023/08/27 05:20:37;;;;;;;4.20;1.50;;;16.10;99.90;;;;;;5114181;28;20447;-85
2023/08/27 05:23:04;;;;;;;3.80;2.00;;;16.10;99.90;;;;;;5113626;28;20928;-85
2023/08/27 05:25:31;;;;;;;1.90;1.70;;;16.20;99.90;;;;;;5113608;28;20838;-84
2023/08/27 05:27:57;;;;;;;4.07;1.90;;;16.20;99.90;;;;;;5113666;28;20435;-85
2023/08/27 05:30:25;;;;;;;1.83;1.50;;;16.20;99.90;;;;;;5113584;28;20446;-84
2023/08/27 05:32:53;;;;;;;1.70;1.50;;;16.20;99.90;;;;;;5113561;28;20439;-84
2023/08/27 05:35:19;;;;;;;4.83;1.33;;;16.10;99.90;;;;;;5113406;28;20467;-84
2023/08/27 05:37:47;;;;;;;1.77;1.33;;;16.10;99.90;;;;;;5113310;28;20447;-85
2023/08/27 05:40:14;;;;;;;2.40;1.10;;;16.00;99.90;;;;;;5113591;28;20439;-84
2023/08/27 05:42:41;;;;;;;2.10;1.63;;;16.10;99.90;;;;;;5113544;28;20438;-84
2023/08/27 05:45:09;;;;;;;9.70;1.47;;;16.00;99.90;;;;;;5113568;28;20462;-85
2023/08/27 05:47:36;;;;;;;1.30;1.20;;;15.90;99.90;;;;;;5113810;28;20518;-86
2023/08/27 05:50:02;;;;;;;1.03;0.80;;;15.90;99.90;;;;;;5113885;28;20821;-86
2023/08/27 05:52:29;;;;;;;1.20;1.10;;;15.90;99.90;;;;;;5113638;28;20798;-86
2023/08/27 05:54:58;;;;;;;0.73;0.73;;;15.90;99.90;;;;;;5113267;28;20463;-85
2023/08/27 05:57:24;;;;;;;0.70;0.60;;;16.00;99.90;;;;;;5113572;28;20447;-86
2023/08/27 05:59:51;;;;;;;0.70;0.70;;;16.00;99.90;;;;;;5113846;28;20462;-86
2023/08/27 06:02:18;;;;;;;0.50;0.50;;;16.00;99.90;;;;;;5113345;28;20451;-85
2023/08/27 06:04:45;;;;;;;0.80;0.70;;;16.10;99.90;;;;;;5112962;28;20479;-85
2023/08/27 06:07:11;;;;;;;0.67;0.63;;;16.10;99.90;;;;;;5113398;28;20439;-85
2023/08/27 06:09:38;;;;;;;0.93;0.93;;;16.40;99.90;;;;;;5115680;28;20457;-85
2023/08/27 06:12:06;;;;;;;0.80;0.80;;;16.40;99.90;;;;;;5116748;28;20820;-85
2023/08/27 06:14:33;;;;;;;0.87;0.50;;;16.20;99.90;;;;;;5117025;28;20439;-85
2023/08/27 06:17:00;;;;;;;0.83;0.80;;;16.20;99.90;;;;;;5116831;28;20453;-85
2023/08/27 06:19:27;;;;;;;0.80;0.80;;;16.30;99.90;;;;;;5116776;28;20486;-85
2023/08/27 06:21:53;;;;;;;0.90;0.70;;;16.30;99.90;;;;;;5116713;28;20443;-85
2023/08/27 06:24:20;;;;;;;0.70;0.70;;;16.30;99.90;;;;;;5116514;28;20950;-85
2023/08/27 06:26:47;;;;;;;1.37;0.90;;;16.40;99.90;;;;;;5116305;28;20467;-85
2023/08/27 06:29:15;;;;;;;1.63;1.00;;;16.40;99.90;;;;;;5116656;28;20446;-86
2023/08/27 06:31:43;;;;;;;1.40;1.00;;;16.40;99.90;;;;;;5116594;27;20434;-85
2023/08/27 06:34:10;;;;;;;2.27;1.00;;;16.40;99.90;;;;;;5116761;28;20447;-85
2023/08/27 06:36:37;;;;;;;1.10;1.00;;;16.40;99.90;;;;;;5116091;28;20458;-85
2023/08/27 06:39:04;;;;;;;1.33;1.00;;;16.40;99.90;;;;;;5116256;27;20504;-87
2023/08/27 06:41:30;;;;;;;1.00;0.87;;;16.40;99.90;;;;;;5116279;28;20443;-85
2023/08/27 06:43:57;;;;;;;0.70;0.70;;;16.40;99.90;;;;;;5116364;28;20439;-84
2023/08/27 06:46:25;;;;;;;0.83;0.83;;;16.40;99.90;;;;;;5116258;28;20459;-85
2023/08/27 06:48:52;;;;;;;1.20;0.97;;;16.50;99.90;;;;;;5116168;28;20454;-85
2023/08/27 06:51:19;;;;;;;1.10;1.00;;;16.40;99.90;;;;;;5115939;28;20442;-85
2023/08/27 06:53:45;;;;;;;0.77;0.77;;;16.40;99.90;;;;;;5116521;28;20443;-85
2023/08/27 06:56:12;;;;;;;2.30;1.40;;;16.40;99.90;;;;;;5116132;28;20471;-85
2023/08/27 06:58:39;;;;;;;2.63;2.17;;;16.50;99.90;;;;;;5115982;28;20826;-85
2023/08/27 07:01:06;;;;;;;0.83;0.83;;;16.50;99.90;;;;;;5116118;28;20447;-85
2023/08/27 07:03:34;;;;;;;1.10;0.97;;;16.40;99.90;;;;;;5115712;28;20479;-85
2023/08/27 07:06:01;;;;;;;1.13;0.70;;;16.40;99.90;;;;;;5115863;28;20463;-85
2023/08/27 07:08:28;;;;;;;0.60;0.60;;;16.30;99.90;;;;;;5115793;28;20431;-85
2023/08/27 07:10:54;;;;;;;2.20;1.10;;;16.30;99.90;;;;;;5115812;28;20458;-85
2023/08/27 07:13:21;;;;;;;0.77;0.67;;;16.30;99.90;;;;;;5115865;28;20443;-85
2023/08/27 07:15:48;;;;;;;0.80;0.80;;;16.30;99.90;;;;;;5115313;28;20474;-85
2023/08/27 07:18:15;;;;;;;0.97;0.87;;;16.40;99.90;;;;;;5115601;28;20449;-85
2023/08/27 07:20:43;;;;;;;1.00;0.90;;;16.30;99.90;;;;;;5114448;28;20448;-85
2023/08/27 07:23:10;;;;;;;1.07;0.47;;;16.30;99.90;;;;;;5115547;28;20454;-85
2023/08/27 07:25:38;;;;;;;0.60;0.60;;;16.20;99.90;;;;;;5115231;28;20990;-85
2023/08/27 07:28:05;;;;;;;0.73;0.60;;;16.30;99.90;;;;;;5115212;28;20997;-87
2023/08/27 07:30:32;;;;;;;4.53;1.00;;;16.40;99.90;;;;;;5114975;28;20447;-84
2023/08/27 07:32:59;;;;;;;1.07;0.70;;;16.40;99.90;;;;;;5114958;28;20931;-84
2023/08/27 07:35:25;;;;;;;1.43;0.70;;;16.40;99.90;;;;;;5115207;28;20512;-83
2023/08/27 07:37:54;;;;;;;0.60;0.60;;;16.40;99.90;;;;;;5115173;28;20443;-84
2023/08/27 07:40:20;;;;;;;1.27;0.80;;;16.40;99.90;;;;;;5114792;28;20987;-84
2023/08/27 07:42:47;;;;;;;0.60;0.50;;;16.40;99.90;;;;;;5115064;28;20447;-83
2023/08/27 07:45:14;;;;;;;0.50;0.50;;;16.50;99.90;;;;;;5114960;28;20463;-84
2023/08/27 07:47:41;;;;;;;3.57;0.80;;;16.60;99.90;;;;;;5114988;28;20530;-84
2023/08/27 07:50:09;;;;;;;1.10;1.00;;;16.70;99.90;;;;;;5115115;28;20435;-84
2023/08/27 07:52:35;;;;;;;1.00;0.60;;;16.80;99.90;;;;;;5114861;28;20441;-84
2023/08/27 07:55:04;;;;;;;1.47;0.73;;;16.80;99.90;;;;;;5114470;28;21048;-84
2023/08/27 07:57:31;;;;;;;1.17;0.77;;;16.90;99.90;;;;;;5114614;28;20431;-85
2023/08/27 07:59:58;;;;;;;2.13;0.60;;;17.00;99.90;;;;;;5115228;28;20474;-87
2023/08/27 08:02:24;;;;;;;0.60;0.60;;;17.10;99.90;;;;;;5114740;28;20948;-86
2023/08/27 08:04:51;;;;;;;0.70;0.47;;;17.20;99.90;;;;;;5114557;27;20478;-86
2023/08/27 08:07:18;;;;;;;0.83;0.60;;;17.20;99.90;;;;;;5114844;28;20446;-85
2023/08/27 08:09:45;;;;;;;0.93;0.60;;;17.20;99.90;;;;;;5114606;28;20439;-85
2023/08/27 08:12:13;;;;;;;10.30;0.60;;;17.20;99.90;;;;;;5114397;28;20932;-85
2023/08/27 08:14:40;;;;;;;1.10;0.60;;;17.20;99.90;;;;;;5114280;28;20423;-86
2023/08/27 08:17:07;;;;;;;1.00;0.50;;;17.20;99.90;;;;;;5114729;28;20446;-86
2023/08/27 08:19:33;;;;;;;1.93;0.70;;;17.10;99.90;;;;;;5114405;28;20482;-86
2023/08/27 08:22:00;;;;;;;0.60;0.60;;;17.20;99.90;;;;;;5114405;28;20454;-86
2023/08/27 08:24:27;;;;;;;2.50;0.63;;;17.20;99.90;;;;;;5114487;28;20454;-85
2023/08/27 08:26:54;;;;;;;0.50;0.50;;;17.30;99.90;;;;;;5114044;28;20462;-85
2023/08/27 08:29:22;;;;;;;0.73;0.50;;;17.40;99.90;;;;;;5114478;28;20435;-85
2023/08/27 08:31:48;;;;;;;0.50;0.50;;;17.50;99.90;;;;;;5114730;28;20806;-86
2023/08/27 08:34:15;;;;;;;0.70;0.60;;;17.60;99.90;;;;;;5114082;28;20951;-86
2023/08/27 08:36:42;;;;;;;0.80;0.50;;;17.70;99.90;;;;;;5113860;28;20467;-85
2023/08/27 08:39:09;;;;;;;0.73;0.40;;;17.70;99.90;;;;;;5113932;28;20467;-85
2023/08/27 08:41:41;;;;;;;1.53;0.63;;;17.70;99.90;;;;;;5114116;28;20439;-85
2023/08/27 08:44:17;;;;;;;0.50;0.50;;;17.70;99.90;;;;;;5114281;28;20435;-85
2023/08/27 08:46:46;;;;;;;0.53;0.50;;;17.70;99.90;;;;;;5114119;28;20469;-86
2023/08/27 08:49:16;;;;;;;0.70;0.57;;;17.80;99.90;;;;;;5114056;28;20435;-83
2023/08/27 08:51:44;;;;;;;0.67;0.50;;;17.80;99.90;;;;;;5113985;28;20439;-84
2023/08/27 08:54:15;;;;;;;1.17;0.60;;;17.80;99.90;;;;;;5113916;28;20446;-84
2023/08/27 08:56:48;;;;;;;0.63;0.63;;;17.80;99.90;;;;;;5113765;28;20462;-84
2023/08/27 08:59:15;;;;;;;0.70;0.50;;;17.70;99.90;;;;;;5113789;28;20636;-85
2023/08/27 09:01:43;;;;;;;0.90;0.67;;;17.70;99.90;;;;;;5113545;28;20431;-84
2023/08/27 09:04:14;;;;;;;0.70;0.60;;;17.70;99.90;;;;;;5113275;28;20848;-85
2023/08/27 09:06:42;;;;;;;1.37;0.63;;;17.80;99.90;;;;;;5113676;28;20462;-84
2023/08/27 09:09:10;;;;;;;1.17;0.50;;;17.80;99.90;;;;;;5113795;28;20436;-84
2023/08/27 09:11:38;;;;;;;0.60;0.60;;;17.80;99.90;;;;;;5113388;28;20958;-84
2023/08/27 09:14:05;;;;;;;0.70;0.60;;;17.90;99.90;;;;;;5113436;28;20434;-84
2023/08/27 09:16:31;;;;;;;4.10;0.60;;;17.90;99.90;;;;;;5113585;28;20467;-84
2023/08/27 09:18:58;;;;;;;0.50;0.50;;;17.90;99.90;;;;;;5113529;28;20443;-85
2023/08/27 09:21:27;;;;;;;0.90;0.70;;;18.00;99.90;;;;;;5113640;28;20439;-84
2023/08/27 09:23:55;;;;;;;0.50;0.50;;;18.10;99.90;;;;;;5113606;28;20440;-84
2023/08/27 09:26:22;;;;;;;0.70;0.50;;;18.10;99.90;;;;;;5113518;28;20457;-84
2023/08/27 09:28:49;;;;;;;0.83;0.80;;;18.20;99.90;;;;;;5113329;28;20438;-84
2023/08/27 09:31:36;;;;;;;0.57;0.50;;;18.30;99.90;;;;;;5113433;28;20423;-83
2023/08/27 09:34:03;;;;;;;0.60;0.57;;;18.50;99.90;;;;;;5113591;28;20419;-85
2023/08/27 09:36:32;;;;;;;0.77;0.73;;;18.60;99.90;;;;;;5113638;28;20857;-84
2023/08/27 09:39:04;;;;;;;0.70;0.60;;;18.70;99.90;;;;;;5113391;28;20435;-85
2023/08/27 09:41:31;;;;;;;1.87;0.60;;;18.80;99.90;;;;;;5113531;28;20458;-84
2023/08/27 09:43:57;;;;;;;1.43;0.83;;;18.90;99.90;;;;;;5114721;28;20443;-85
2023/08/27 09:46:24;;;;;;;0.73;0.70;;;18.90;99.90;;;;;;5116922;28;20990;-85
2023/08/27 09:48:58;;;;;;;0.70;0.70;;;18.90;99.90;;;;;;5117093;28;20427;-84
2023/08/27 09:51:26;;;;;;;1.07;0.60;;;19.00;99.90;;;;;;5116962;28;21005;-85
2023/08/27 09:53:55;;;;;;;1.17;0.60;;;19.10;99.90;;;;;;5117384;28;20443;-85
2023/08/27 09:56:24;;;;;;;3.90;0.60;;;19.00;99.90;;;;;;5117186;28;20463;-85
2023/08/27 09:58:51;;;;;;;0.63;0.50;;;19.00;99.90;;;;;;5117132;28;20446;-85
2023/08/27 10:01:18;;;;;;;1.67;0.63;;;19.00;99.90;;;;;;5116707;27;20487;-85
2023/08/27 10:03:47;;;;;;;0.83;0.50;;;19.00;99.90;;;;;;5116960;28;20505;-85
2023/08/27 10:06:14;;;;;;;2.03;0.70;;;18.90;99.90;;;;;;5117103;28;20806;-86
2023/08/27 10:08:50;;;;;;;0.80;0.60;;;18.90;99.90;;;;;;5116966;28;20530;-85
2023/08/27 10:11:22;;;;;;;0.73;0.60;;;18.90;99.90;;;;;;5117063;28;20443;-86
2023/08/27 10:13:49;;;;;;;2.13;0.50;;;18.90;99.90;;;;;;5117037;28;20435;-86
2023/08/27 10:16:16;;;;;;;2.73;0.50;;;18.90;99.90;;;;;;5117070;28;20471;-85
2023/08/27 10:18:44;;;;;;;0.60;0.60;;;18.90;99.90;;;;;;5117226;28;20454;-88
2023/08/27 10:21:12;;;;;;;0.70;0.60;;;19.00;99.90;;;;;;5117034;28;20487;-88
2023/08/27 10:23:40;;;;;;;1.43;0.70;;;19.20;99.90;;;;;;5117044;28;20447;-88
2023/08/27 10:26:07;;;;;;;0.83;0.60;;;19.30;99.90;;;;;;5117122;28;20557;-87
2023/08/27 10:28:35;;;;;;;1.23;0.70;;;19.40;99.90;;;;;;5117269;28;20458;-88
2023/08/27 10:31:03;;;;;;;1.00;0.70;;;19.50;99.90;;;;;;5117349;28;20534;-88
2023/08/27 10:33:30;;;;;;;0.53;0.50;;;19.40;99.90;;;;;;5117226;28;20442;-87
2023/08/27 10:36:00;;;;;;;0.90;0.60;;;19.40;99.90;;;;;;5116915;28;20451;-88
2023/08/27 10:38:29;;;;;;;0.73;0.60;;;19.40;99.90;;;;;;5117121;28;20435;-88
2023/08/27 10:40:56;;;;;;;0.60;0.60;;;19.40;99.90;;;;;;5116907;28;20490;-88
2023/08/27 10:43:23;;;;;;;2.63;0.80;;;19.40;99.90;;;;;;5116806;28;20443;-88
2023/08/27 10:45:52;;;;;;;0.70;0.70;;;19.50;99.90;;;;;;5116516;28;20976;-88
2023/08/27 10:48:30;;;;;;;0.83;0.83;;;19.40;99.90;;;;;;5116526;28;20451;-88
2023/08/27 10:51:09;;;;;;;4.60;0.73;;;19.40;99.90;;;;;;5116809;28;20489;-88
2023/08/27 10:53:40;;;;;;;1.13;1.00;;;19.50;99.90;;;;;;5116868;28;20505;-88
2023/08/27 10:56:29;;;;;;;0.73;0.63;;;19.60;99.90;;;;;;5116465;28;20520;-89
2023/08/27 10:59:00;;;;;;;1.90;0.60;;;19.50;99.90;;;;;;5116871;28;20478;-89
2023/08/27 11:01:29;;;;;;;4.40;0.80;;;19.50;99.90;;;;;;5116892;28;20847;-89
2023/08/27 11:03:57;;;;;;;0.60;0.50;;;19.50;99.90;;;;;;5116368;28;20482;-89
2023/08/27 11:06:48;;;;;;;0.70;0.57;;;19.60;99.90;;;;;;5116500;27;20466;-89
2023/08/27 11:09:21;;;;;;;0.70;0.50;;;19.40;99.90;;;;;;5101470;28;20537;-90
2023/08/27 11:11:52;;;;;;;1.83;0.70;;;19.50;99.90;;;;;;5116770;28;20428;-90
2023/08/27 11:14:21;;;;;;;1.30;0.60;;;19.40;99.90;;;;;;5116860;28;20423;-89
2023/08/27 11:16:55;;;;;;;1.07;0.60;;;19.50;99.90;;;;;;5116577;28;20455;-89
2023/08/27 11:19:27;;;;;;;0.50;0.50;;;19.60;99.90;;;;;;5116343;28;20943;-90
2023/08/27 11:22:03;;;;;;;0.70;0.60;;;19.50;99.90;;;;;;5116711;28;20428;-90
2023/08/27 11:24:30;;;;;;;0.90;0.70;;;19.60;99.90;;;;;;5116596;28;20422;-89
2023/08/27 11:27:00;;;;;;;1.83;0.77;;;19.70;99.90;;;;;;5116117;28;20439;-90
2023/08/27 11:29:28;;;;;;;1.43;0.60;;;19.70;99.90;;;;;;5116548;28;20830;-91
2023/08/27 11:31:56;;;;;;;0.50;0.50;;;19.70;99.90;;;;;;5117830;28;20439;-89
2023/08/27 11:34:23;;;;;;;0.83;0.63;;;19.70;99.90;;;;;;5117837;28;20447;-89
2023/08/27 11:36:54;;;;;;;0.60;0.60;;;19.80;99.90;;;;;;5117351;28;20823;-89
2023/08/27 11:39:21;;;;;;;1.00;0.60;;;20.00;99.90;;;;;;5117411;28;20431;-89
2023/08/27 11:41:48;;;;;;;0.53;0.53;;;20.00;99.90;;;;;;5117007;28;20508;-88
2023/08/27 11:44:16;;;;;;;0.80;0.70;;;20.10;99.90;;;;;;5116596;28;20442;-89
2023/08/27 11:46:43;;;;;;;2.53;0.63;;;20.30;99.90;;;;;;5116512;28;20487;-89
2023/08/27 11:49:13;;;;;;;0.60;0.60;;;20.30;99.90;;;;;;5116407;28;20450;-89
2023/08/27 11:51:41;;;;;;;1.10;0.60;;;20.30;99.90;;;;;;5116274;28;20446;-89
2023/08/27 11:54:10;;;;;;;0.63;0.40;;;20.30;99.90;;;;;;5115965;28;20457;-90
2023/08/27 11:56:37;;;;;;;0.60;0.60;;;20.20;99.90;;;;;;5115943;28;20478;-89
2023/08/27 11:59:04;;;;;;;1.00;0.63;;;20.20;99.90;;;;;;5115889;28;20935;-89
2023/08/27 12:01:32;;;;;;;1.37;0.70;;;20.10;99.90;;;;;;5115773;28;20478;-89
2023/08/27 12:03:59;;;;;;;1.00;0.73;;;20.10;99.90;;;;;;5115477;28;20486;-89
2023/08/27 12:06:28;;;;;;;1.27;0.53;;;20.10;99.90;;;;;;5115089;28;20477;-89
2023/08/27 12:08:56;;;;;;;2.97;0.70;;;20.10;99.90;;;;;;5116278;28;20443;-89
2023/08/27 12:11:26;;;;;;;0.97;0.80;;;20.20;99.90;;;;;;5115877;28;20449;-89
2023/08/27 12:13:56;;;;;;;0.60;0.53;;;20.10;99.90;;;;;;5116137;28;20919;-89
2023/08/27 12:16:29;;;;;;;1.10;0.70;;;20.20;99.90;;;;;;5115945;28;20458;-90
2023/08/27 12:19:05;;;;;;;1.10;0.77;;;20.30;99.90;;;;;;5115629;28;20422;-89
2023/08/27 12:21:47;;;;;;;1.47;0.67;;;20.30;99.90;;;;;;5115109;28;20459;-89
2023/08/27 12:24:27;;;;;;;1.30;0.80;;;20.30;99.90;;;;;;5115468;28;20430;-89
2023/08/27 12:26:54;;;;;;;0.80;0.60;;;20.20;99.90;;;;;;5115215;28;20478;-89
2023/08/27 12:29:20;;;;;;;0.70;0.50;;;20.20;99.90;;;;;;5114872;28;20438;-89
2023/08/27 12:31:47;;;;;;;0.73;0.60;;;20.20;99.90;;;;;;5114995;28;20435;-90
2023/08/27 12:34:14;;;;;;;0.60;0.50;;;20.10;99.90;;;;;;5115272;28;20439;-89
2023/08/27 12:36:42;;;;;;;0.90;0.50;;;20.00;99.90;;;;;;5115167;28;20459;-90
2023/08/27 12:39:09;;;;;;;1.73;0.70;;;20.00;99.90;;;;;;5114985;28;20454;-90
2023/08/27 12:41:36;;;;;;;0.60;0.60;;;20.10;99.90;;;;;;5115260;28;20493;-90
2023/08/27 12:44:03;;;;;;;0.83;0.67;;;20.10;99.90;;;;;;5114823;28;20454;-90
2023/08/27 12:46:30;;;;;;;0.70;0.67;;;20.10;99.90;;;;;;5115040;28;20497;-90
2023/08/27 12:48:57;;;;;;;2.10;0.50;;;20.20;99.90;;;;;;5114754;28;20442;-89
2023/08/27 12:51:23;;;;;;;0.53;0.47;;;20.00;99.90;;;;;;5115126;28;20439;-89